Time;durP1;ratioP1;P1;durP2;ratioP2;P2;SDS_P1;SDS_P2;PMS_P1;PMS_P2;Temp;Humidity;BMP_temperature;BMP_pressure;BME280_temperature;BME280_humidity;BME280_pressure;Samples;Min_cycle;Max_cycle;Signal;HPM_P1;HPM_P2
2023/07/13 00:01:27;;;;;;;16.83;4.45;;;16.90;78.00;;;;;;5108150;27;20044;-77
2023/07/13 00:03:54;;;;;;;14.82;3.90;;;16.90;78.00;;;;;;5107013;28;20020;-75
2023/07/13 00:06:20;;;;;;;13.32;3.63;;;16.90;78.10;;;;;;5090039;28;20448;-76
2023/07/13 00:08:47;;;;;;;17.27;4.40;;;16.80;78.30;;;;;;5108030;27;20073;-75
2023/07/13 00:11:14;;;;;;;16.95;3.67;;;16.80;78.40;;;;;;5088656;28;20024;-75
2023/07/13 00:13:40;;;;;;;16.80;4.72;;;16.80;79.00;;;;;;5115646;27;20071;-76
2023/07/13 00:16:07;;;;;;;15.63;3.60;;;16.70;78.80;;;;;;5107960;27;20035;-75
2023/07/13 00:18:32;;;;;;;16.92;3.90;;;16.70;79.30;;;;;;5108647;28;20059;-76
2023/07/13 00:21:05;;;;;;;15.27;4.18;;;16.60;79.20;;;;;;5109027;28;20449;-75
2023/07/13 00:23:41;;;;;;;17.27;3.95;;;16.70;79.40;;;;;;5109542;28;20030;-76
2023/07/13 00:26:08;;;;;;;14.38;3.88;;;16.70;79.30;;;;;;5108478;28;20471;-75
2023/07/13 00:28:35;;;;;;;19.80;3.88;;;16.60;79.60;;;;;;5107706;28;20030;-77
2023/07/13 00:31:01;;;;;;;18.42;3.75;;;16.60;79.50;;;;;;5107938;28;20130;-75
2023/07/13 00:33:28;;;;;;;16.63;4.60;;;16.70;79.60;;;;;;5109090;28;20023;-75
2023/07/13 00:35:55;;;;;;;16.42;4.35;;;16.70;79.60;;;;;;5108338;28;20466;-76
2023/07/13 00:38:21;;;;;;;16.52;4.57;;;16.70;79.90;;;;;;5108983;28;20472;-76
2023/07/13 00:40:47;;;;;;;12.95;3.67;;;16.60;79.80;;;;;;5107596;28;20024;-75
2023/07/13 00:43:22;;;;;;;15.30;3.97;;;16.60;79.80;;;;;;5108825;28;20030;-75
2023/07/13 00:45:47;;;;;;;19.27;4.60;;;16.60;79.80;;;;;;5107296;28;20573;-74
2023/07/13 00:48:20;;;;;;;14.40;3.60;;;16.60;80.20;;;;;;5108170;28;20020;-74
2023/07/13 00:50:50;;;;;;;14.93;3.95;;;16.60;80.30;;;;;;5108552;27;20042;-74
2023/07/13 00:53:17;;;;;;;15.77;4.53;;;16.60;80.20;;;;;;5116751;27;20024;-75
2023/07/13 00:55:43;;;;;;;18.38;4.57;;;16.60;80.20;;;;;;5107363;28;20525;-75
2023/07/13 00:58:09;;;;;;;21.00;4.63;;;16.60;80.30;;;;;;5108787;28;20106;-75
2023/07/13 01:00:37;;;;;;;17.02;4.95;;;16.60;80.30;;;;;;5104569;27;20101;-75
2023/07/13 01:03:04;;;;;;;17.52;4.60;;;16.60;80.20;;;;;;5108522;28;20050;-74
2023/07/13 01:05:32;;;;;;;17.58;4.60;;;16.60;80.70;;;;;;5118007;27;20028;-75
2023/07/13 01:08:00;;;;;;;18.38;4.97;;;16.50;80.90;;;;;;5105212;28;20026;-75
2023/07/13 01:10:26;;;;;;;16.75;4.47;;;16.50;81.10;;;;;;5088501;27;20032;-75
2023/07/13 01:12:52;;;;;;;22.65;4.25;;;16.50;81.30;;;;;;5107659;28;20091;-74
2023/07/13 01:15:44;;;;;;;13.32;4.25;;;16.40;81.60;;;;;;5108303;27;20127;-76
2023/07/13 01:18:18;;;;;;;19.15;4.85;;;16.40;81.80;;;;;;5106105;28;20035;-76
2023/07/13 01:21:02;;;;;;;19.10;5.10;;;16.40;81.80;;;;;;5088770;28;20430;-74
2023/07/13 01:23:30;;;;;;;17.42;5.15;;;16.40;81.80;;;;;;5109665;27;20276;-75
2023/07/13 01:25:56;;;;;;;15.05;4.80;;;16.40;81.70;;;;;;5107034;27;20112;-75
2023/07/13 01:28:26;;;;;;;18.35;5.22;;;16.40;81.80;;;;;;5107572;28;20519;-75
2023/07/13 01:30:53;;;;;;;18.63;4.55;;;16.30;82.10;;;;;;5106667;27;20039;-74
2023/07/13 01:33:20;;;;;;;16.70;5.18;;;16.30;82.10;;;;;;5110072;27;20024;-74
2023/07/13 01:35:46;;;;;;;16.20;4.70;;;16.40;82.10;;;;;;5083025;28;20048;-75
2023/07/13 01:38:18;;;;;;;16.20;4.13;;;16.30;82.20;;;;;;5104435;28;20028;-75
2023/07/13 01:40:44;;;;;;;20.70;5.03;;;16.30;82.20;;;;;;5106758;28;20020;-73
2023/07/13 01:43:10;;;;;;;16.40;5.10;;;16.40;82.20;;;;;;5106874;28;20030;-76
2023/07/13 01:45:36;;;;;;;15.57;5.38;;;16.30;82.20;;;;;;5106674;27;20050;-72
2023/07/13 01:48:01;;;;;;;15.23;4.80;;;16.30;82.30;;;;;;5107477;28;20024;-75
2023/07/13 01:50:27;;;;;;;16.17;4.78;;;16.30;82.40;;;;;;5107398;27;20024;-75
2023/07/13 01:52:53;;;;;;;19.10;5.45;;;16.30;82.60;;;;;;5106819;28;20042;-75
2023/07/13 01:55:20;;;;;;;18.83;5.28;;;16.30;82.80;;;;;;5110845;27;20035;-75
2023/07/13 01:57:46;;;;;;;18.65;5.65;;;16.30;82.80;;;;;;5110221;27;20368;-75
2023/07/13 02:00:14;;;;;;;18.67;5.28;;;16.30;82.70;;;;;;5120796;27;20024;-77
2023/07/13 02:02:39;;;;;;;17.27;5.13;;;16.30;82.60;;;;;;5113521;27;20028;-75
2023/07/13 02:05:06;;;;;;;20.45;5.38;;;16.30;82.70;;;;;;5106335;27;20381;-77
2023/07/13 02:07:32;;;;;;;17.70;5.50;;;16.30;82.90;;;;;;5119166;27;20031;-75
2023/07/13 02:09:57;;;;;;;18.25;5.78;;;16.20;83.00;;;;;;5106164;27;20016;-76
2023/07/13 02:12:23;;;;;;;17.50;5.03;;;16.20;83.00;;;;;;5107405;28;20104;-76
2023/07/13 02:14:49;;;;;;;14.18;5.80;;;16.20;83.10;;;;;;5114795;27;20023;-75
2023/07/13 02:17:14;;;;;;;19.30;5.95;;;16.30;83.00;;;;;;5105067;28;20040;-75
2023/07/13 02:19:40;;;;;;;18.27;7.18;;;16.20;82.90;;;;;;5106620;28;20229;-75
2023/07/13 02:22:06;;;;;;;18.52;6.10;;;16.20;82.90;;;;;;5087205;28;20680;-75
2023/07/13 02:24:32;;;;;;;15.82;6.00;;;16.20;83.10;;;;;;5089616;28;20058;-75
2023/07/13 02:26:57;;;;;;;18.58;6.13;;;16.20;83.00;;;;;;5104691;27;20026;-75
2023/07/13 02:29:23;;;;;;;20.10;6.30;;;16.20;83.00;;;;;;5106111;28;20061;-76
2023/07/13 02:31:49;;;;;;;20.60;6.28;;;16.10;83.00;;;;;;5108196;27;20059;-76
2023/07/13 02:34:15;;;;;;;17.35;5.95;;;16.20;83.00;;;;;;5106023;28;20031;-77
2023/07/13 02:36:41;;;;;;;17.95;5.45;;;16.10;83.20;;;;;;5084582;28;20472;-75
2023/07/13 02:39:07;;;;;;;21.20;5.28;;;16.10;83.30;;;;;;5105634;28;20058;-76
2023/07/13 02:41:33;;;;;;;18.75;5.28;;;16.10;83.30;;;;;;5084712;28;20047;-75
2023/07/13 02:44:03;;;;;;;14.43;4.72;;;16.10;83.30;;;;;;5084223;28;20034;-75
2023/07/13 02:46:38;;;;;;;20.52;5.60;;;16.10;83.40;;;;;;5106134;28;20069;-76
2023/07/13 02:49:04;;;;;;;14.57;4.68;;;16.10;83.40;;;;;;5106195;28;20019;-75
2023/07/13 02:51:30;;;;;;;17.38;5.65;;;16.10;83.40;;;;;;5104234;27;20027;-75
2023/07/13 02:53:56;;;;;;;19.45;4.97;;;16.10;83.40;;;;;;5102714;28;20421;-75
2023/07/13 02:56:27;;;;;;;14.85;5.20;;;16.10;83.50;;;;;;5106237;27;20047;-75
2023/07/13 02:58:54;;;;;;;22.92;5.47;;;16.10;83.50;;;;;;5089890;28;20012;-74
2023/07/13 03:01:21;;;;;;;19.42;5.10;;;16.10;83.50;;;;;;5104840;27;20041;-74
2023/07/13 03:03:47;;;;;;;14.07;5.00;;;16.00;83.40;;;;;;5106430;28;20077;-73
2023/07/13 03:06:13;;;;;;;18.40;5.63;;;16.10;83.50;;;;;;5107057;27;20028;-74
2023/07/13 03:08:40;;;;;;;18.73;5.55;;;16.10;83.50;;;;;;5105485;28;20078;-75
2023/07/13 03:11:18;;;;;;;19.38;5.93;;;16.10;83.60;;;;;;5087257;28;20032;-75
2023/07/13 03:13:44;;;;;;;20.38;5.30;;;16.10;83.70;;;;;;5101765;28;20093;-75
2023/07/13 03:16:11;;;;;;;19.70;5.57;;;16.10;83.60;;;;;;5109288;27;20023;-76
2023/07/13 03:18:37;;;;;;;17.52;5.10;;;16.10;83.70;;;;;;5105548;28;20102;-74
2023/07/13 03:21:04;;;;;;;18.92;5.72;;;16.20;83.50;;;;;;5088226;28;20321;-74
2023/07/13 03:23:30;;;;;;;16.77;5.20;;;16.20;83.30;;;;;;5105165;28;20020;-74
2023/07/13 03:26:25;;;;;;;16.48;5.18;;;16.20;83.10;;;;;;5105400;28;20158;-75
2023/07/13 03:28:50;;;;;;;19.48;5.07;;;16.10;83.30;;;;;;5079834;28;20036;-74
2023/07/13 03:31:19;;;;;;;18.80;4.55;;;16.10;83.50;;;;;;5108601;27;20092;-74
2023/07/13 03:33:46;;;;;;;19.77;4.90;;;16.20;83.50;;;;;;5109376;28;20015;-74
2023/07/13 03:36:18;;;;;;;19.13;5.07;;;16.10;83.20;;;;;;5091922;28;20126;-74
2023/07/13 03:38:46;;;;;;;14.40;5.05;;;16.10;83.30;;;;;;5099685;28;20458;-75
2023/07/13 03:41:11;;;;;;;14.57;5.15;;;16.10;83.30;;;;;;5109482;28;20077;-74
2023/07/13 03:43:37;;;;;;;22.65;5.10;;;16.10;83.20;;;;;;5109389;28;20038;-74
2023/07/13 03:46:03;;;;;;;18.10;5.22;;;16.10;83.20;;;;;;5108341;28;20035;-74
2023/07/13 03:48:28;;;;;;;18.95;5.55;;;16.10;83.30;;;;;;5109806;28;20031;-74
2023/07/13 03:50:54;;;;;;;17.92;5.53;;;16.10;83.40;;;;;;5105078;28;20725;-75
2023/07/13 03:53:20;;;;;;;16.30;4.63;;;16.10;83.40;;;;;;5109515;28;20483;-73
2023/07/13 03:55:45;;;;;;;19.38;4.97;;;16.10;83.30;;;;;;5104795;28;20123;-74
2023/07/13 03:58:33;;;;;;;17.38;4.50;;;16.20;83.40;;;;;;5110003;28;20408;-75
2023/07/13 04:01:00;;;;;;;18.88;5.20;;;16.20;83.40;;;;;;5108741;28;20039;-74
2023/07/13 04:03:27;;;;;;;14.45;5.07;;;16.20;83.30;;;;;;5109752;28;20012;-75
2023/07/13 04:06:00;;;;;;;16.38;4.40;;;16.30;83.10;;;;;;5114538;27;20035;-74
2023/07/13 04:08:30;;;;;;;19.40;5.07;;;16.30;83.20;;;;;;5105610;28;20024;-75
2023/07/13 04:10:56;;;;;;;18.80;5.55;;;16.40;83.10;;;;;;5105264;27;20066;-74
2023/07/13 04:13:21;;;;;;;14.10;4.53;;;16.40;82.90;;;;;;5109138;27;20047;-74
2023/07/13 04:15:47;;;;;;;17.17;4.97;;;16.40;83.00;;;;;;5108439;27;20052;-77
2023/07/13 04:18:13;;;;;;;19.13;4.78;;;16.40;82.90;;;;;;5108497;28;20410;-74
2023/07/13 04:20:38;;;;;;;15.07;4.50;;;16.50;82.90;;;;;;5108936;27;20043;-75
2023/07/13 04:23:04;;;;;;;23.48;5.60;;;16.50;82.90;;;;;;5090703;28;20035;-74
2023/07/13 04:25:30;;;;;;;19.38;4.57;;;16.50;82.90;;;;;;5108607;28;20069;-74
2023/07/13 04:27:55;;;;;;;17.27;5.03;;;16.50;83.00;;;;;;5109441;28;20020;-75
2023/07/13 04:30:22;;;;;;;15.75;4.75;;;16.60;82.90;;;;;;5089259;28;20051;-74
2023/07/13 04:32:49;;;;;;;18.88;4.95;;;16.60;82.90;;;;;;5081048;28;20437;-75
2023/07/13 04:35:15;;;;;;;13.30;4.50;;;16.60;82.70;;;;;;5108553;27;20044;-75
2023/07/13 04:37:41;;;;;;;14.73;4.60;;;16.60;82.70;;;;;;5108276;28;20024;-75
2023/07/13 04:40:11;;;;;;;16.17;4.82;;;16.70;82.50;;;;;;5108096;27;20313;-75
2023/07/13 04:42:37;;;;;;;12.93;4.43;;;16.60;82.40;;;;;;5110171;27;20443;-75
2023/07/13 04:45:03;;;;;;;19.65;5.63;;;16.70;82.50;;;;;;5108243;28;20122;-76
2023/07/13 04:47:30;;;;;;;17.02;4.65;;;16.70;82.50;;;;;;5077525;28;20636;-75
2023/07/13 04:49:57;;;;;;;17.30;4.93;;;16.80;82.50;;;;;;5103554;28;20024;-75
2023/07/13 04:52:23;;;;;;;14.80;4.20;;;16.80;82.40;;;;;;5108036;28;20020;-75
2023/07/13 04:54:48;;;;;;;18.98;4.65;;;16.90;82.30;;;;;;5108045;28;20541;-74
2023/07/13 04:57:14;;;;;;;19.30;5.93;;;16.90;82.20;;;;;;5107552;27;20019;-74
2023/07/13 04:59:40;;;;;;;19.58;5.53;;;17.00;81.90;;;;;;5108563;28;20027;-74
2023/07/13 05:02:06;;;;;;;26.25;6.15;;;17.10;81.60;;;;;;5107173;27;20023;-74
2023/07/13 05:04:31;;;;;;;19.77;5.22;;;17.10;81.70;;;;;;5105538;28;20035;-75
2023/07/13 05:06:57;;;;;;;22.50;5.18;;;17.10;81.40;;;;;;5095819;28;20020;-74
2023/07/13 05:09:23;;;;;;;18.77;5.35;;;17.10;81.70;;;;;;5108651;28;20213;-74
2023/07/13 05:11:48;;;;;;;15.15;4.38;;;17.20;81.60;;;;;;5107698;27;20035;-74
2023/07/13 05:14:16;;;;;;;15.75;5.35;;;17.20;81.60;;;;;;5107819;28;20080;-74
2023/07/13 05:16:42;;;;;;;18.55;5.55;;;17.30;81.60;;;;;;5106810;27;20464;-74
2023/07/13 05:19:08;;;;;;;22.88;5.95;;;17.40;81.30;;;;;;5097327;28;20103;-74
2023/07/13 05:21:34;;;;;;;20.65;4.88;;;17.40;81.30;;;;;;5107006;27;20055;-75
2023/07/13 05:24:00;;;;;;;23.25;5.10;;;17.50;81.20;;;;;;5093376;28;20085;-76
2023/07/13 05:26:25;;;;;;;19.42;5.30;;;17.50;81.00;;;;;;5107431;28;20135;-76
2023/07/13 05:28:51;;;;;;;16.25;4.72;;;17.50;80.90;;;;;;5107880;28;20023;-75
2023/07/13 05:31:17;;;;;;;17.95;5.60;;;17.60;80.90;;;;;;5107116;27;20044;-76
2023/07/13 05:33:42;;;;;;;20.95;5.57;;;17.60;80.50;;;;;;5107800;28;20031;-75
2023/07/13 05:36:08;;;;;;;15.35;4.43;;;17.70;80.50;;;;;;5089492;28;20384;-76
2023/07/13 05:38:34;;;;;;;17.00;5.28;;;17.70;80.40;;;;;;5108013;27;20028;-76
2023/07/13 05:41:00;;;;;;;18.13;5.65;;;17.80;80.30;;;;;;5107164;27;20015;-75
2023/07/13 05:43:26;;;;;;;17.77;5.13;;;17.80;80.00;;;;;;5108465;28;20027;-76
2023/07/13 05:45:54;;;;;;;18.17;5.53;;;17.80;80.20;;;;;;5106059;27;20031;-75
2023/07/13 05:48:19;;;;;;;17.52;5.05;;;17.80;80.10;;;;;;5107375;28;20115;-76
2023/07/13 05:50:45;;;;;;;20.08;5.15;;;17.80;80.00;;;;;;5123052;27;20467;-76
2023/07/13 05:53:12;;;;;;;21.90;5.40;;;17.90;80.10;;;;;;5107377;28;20039;-75
2023/07/13 05:55:42;;;;;;;15.48;4.50;;;18.00;79.90;;;;;;5094892;27;20035;-75
2023/07/13 05:58:08;;;;;;;17.38;4.82;;;18.00;79.70;;;;;;5109467;27;20036;-76
2023/07/13 06:00:33;;;;;;;14.82;4.97;;;18.10;79.30;;;;;;5107103;27;20135;-75
2023/07/13 06:02:59;;;;;;;18.90;5.65;;;18.10;79.30;;;;;;5106994;28;20548;-76
2023/07/13 06:05:25;;;;;;;17.10;5.38;;;18.10;79.10;;;;;;5111626;27;20031;-75
2023/07/13 06:07:50;;;;;;;17.27;5.32;;;18.30;78.70;;;;;;5107607;27;20023;-76
2023/07/13 06:10:16;;;;;;;13.40;4.30;;;18.30;78.70;;;;;;5106793;27;20062;-75
2023/07/13 06:12:42;;;;;;;16.42;4.70;;;18.30;78.60;;;;;;5107042;27;20088;-76
2023/07/13 06:15:08;;;;;;;15.80;5.18;;;18.50;78.30;;;;;;5106305;27;20360;-76
2023/07/13 06:17:34;;;;;;;15.70;4.70;;;18.50;77.60;;;;;;5093357;28;20028;-75
2023/07/13 06:20:00;;;;;;;18.15;4.28;;;18.60;78.00;;;;;;5106062;27;20050;-76
2023/07/13 06:22:25;;;;;;;14.93;4.78;;;18.70;77.40;;;;;;5107290;28;20016;-76
2023/07/13 06:24:51;;;;;;;15.10;5.35;;;18.70;77.00;;;;;;5088487;28;20027;-75
2023/07/13 06:27:17;;;;;;;18.40;5.15;;;19.00;76.70;;;;;;5106104;28;20035;-75
2023/07/13 06:29:44;;;;;;;19.48;5.40;;;19.00;76.10;;;;;;5105634;28;20388;-75
2023/07/13 06:32:10;;;;;;;17.77;4.95;;;19.00;76.30;;;;;;5106686;28;20050;-75
2023/07/13 06:34:36;;;;;;;16.02;5.18;;;19.10;76.10;;;;;;5106433;28;20476;-75
2023/07/13 06:37:02;;;;;;;15.48;5.10;;;19.30;76.00;;;;;;5106135;28;20023;-77
2023/07/13 06:39:27;;;;;;;20.23;6.18;;;19.40;75.30;;;;;;5106618;28;20027;-76
2023/07/13 06:41:53;;;;;;;16.35;5.63;;;19.60;74.50;;;;;;5104795;27;20117;-76
2023/07/13 06:44:19;;;;;;;19.48;5.63;;;19.70;73.90;;;;;;5106448;28;20460;-75
2023/07/13 06:46:44;;;;;;;19.42;5.82;;;19.90;73.20;;;;;;5105623;28;20038;-76
2023/07/13 06:49:10;;;;;;;17.75;5.57;;;19.80;73.50;;;;;;5107073;28;20043;-76
2023/07/13 06:51:36;;;;;;;14.77;5.03;;;20.00;73.70;;;;;;5108473;28;20028;-76
2023/07/13 06:54:01;;;;;;;18.55;5.45;;;20.20;73.20;;;;;;5107701;28;20471;-75
2023/07/13 06:56:27;;;;;;;19.13;5.90;;;20.50;72.20;;;;;;5108951;27;20535;-75
2023/07/13 06:58:53;;;;;;;24.05;6.30;;;20.60;71.30;;;;;;5110185;28;20016;-75
2023/07/13 07:01:18;;;;;;;17.13;5.03;;;20.60;71.50;;;;;;5108174;27;20031;-75
2023/07/13 07:03:44;;;;;;;16.33;5.65;;;20.70;71.00;;;;;;5099386;28;20041;-75
2023/07/13 07:06:21;;;;;;;14.80;5.05;;;21.10;70.40;;;;;;5111129;27;20490;-75
2023/07/13 07:08:47;;;;;;;14.48;5.40;;;21.20;69.40;;;;;;5112629;27;20022;-75
2023/07/13 07:11:14;;;;;;;15.80;5.05;;;21.10;69.70;;;;;;5087083;28;20035;-75
2023/07/13 07:13:40;;;;;;;17.00;5.10;;;21.30;68.80;;;;;;5087215;28;20609;-76
2023/07/13 07:16:06;;;;;;;22.15;5.53;;;21.00;69.40;;;;;;5109658;27;20054;-75
2023/07/13 07:18:32;;;;;;;15.05;4.95;;;20.70;70.30;;;;;;5106522;28;20082;-75
2023/07/13 07:20:58;;;;;;;17.27;5.75;;;20.40;70.70;;;;;;5106020;28;20426;-75
2023/07/13 07:23:23;;;;;;;14.77;4.55;;;20.40;70.70;;;;;;5106020;28;20027;-75
2023/07/13 07:25:49;;;;;;;17.45;4.72;;;20.50;71.20;;;;;;5103349;28;20039;-75
2023/07/13 07:28:19;;;;;;;16.92;4.80;;;20.80;71.30;;;;;;5087558;28;20028;-76
2023/07/13 07:30:49;;;;;;;19.50;5.05;;;21.10;69.80;;;;;;5104962;28;20052;-75
2023/07/13 07:33:16;;;;;;;14.82;4.13;;;21.40;68.90;;;;;;5105549;28;20034;-75
2023/07/13 07:35:42;;;;;;;12.52;4.50;;;21.90;67.60;;;;;;5104803;28;20062;-75
2023/07/13 07:38:09;;;;;;;22.33;5.45;;;21.90;66.50;;;;;;5105632;28;20043;-75
2023/07/13 07:40:40;;;;;;;21.35;5.68;;;21.70;65.60;;;;;;5105659;28;20051;-76
2023/07/13 07:43:07;;;;;;;14.20;4.60;;;21.30;68.10;;;;;;5105668;28;20020;-76
2023/07/13 07:45:32;;;;;;;14.30;4.57;;;21.30;67.90;;;;;;5105317;28;20093;-76
2023/07/13 07:47:58;;;;;;;13.35;4.47;;;21.30;67.80;;;;;;5104640;28;20016;-76
2023/07/13 07:50:25;;;;;;;16.10;5.28;;;21.60;67.60;;;;;;5109319;28;20077;-75
2023/07/13 07:52:51;;;;;;;16.35;4.40;;;21.50;67.30;;;;;;5082916;28;20467;-75
2023/07/13 07:55:17;;;;;;;17.02;5.22;;;21.70;66.50;;;;;;5105074;28;20032;-77
2023/07/13 07:57:42;;;;;;;15.25;4.82;;;21.70;66.60;;;;;;5105028;28;20107;-75
2023/07/13 08:00:09;;;;;;;17.80;5.13;;;21.80;66.90;;;;;;5081710;27;20123;-74
2023/07/13 08:02:35;;;;;;;9.27;3.58;;;22.00;66.10;;;;;;5105745;28;20019;-74
2023/07/13 08:05:00;;;;;;;15.77;4.65;;;22.50;65.30;;;;;;5106390;27;20584;-74
2023/07/13 08:07:26;;;;;;;12.98;4.53;;;22.80;63.10;;;;;;5110962;28;20104;-74
2023/07/13 08:09:53;;;;;;;15.95;4.05;;;22.90;62.30;;;;;;5102684;28;20069;-75
2023/07/13 08:12:18;;;;;;;13.88;4.03;;;22.90;62.30;;;;;;5095943;27;20020;-75
2023/07/13 08:14:44;;;;;;;14.13;4.13;;;22.80;62.30;;;;;;5092175;28;20056;-74
2023/07/13 08:17:10;;;;;;;15.85;4.20;;;22.60;62.20;;;;;;5107836;27;20093;-75
2023/07/13 08:19:35;;;;;;;14.63;4.35;;;22.60;63.30;;;;;;5108827;28;20505;-76
2023/07/13 08:22:01;;;;;;;11.60;4.10;;;22.30;63.20;;;;;;5104420;27;20368;-75
2023/07/13 08:24:27;;;;;;;12.65;4.28;;;22.20;64.00;;;;;;5107207;28;20061;-75
2023/07/13 08:26:52;;;;;;;14.23;4.05;;;22.20;63.00;;;;;;5106274;27;20027;-74
2023/07/13 08:29:18;;;;;;;11.38;3.78;;;22.50;61.90;;;;;;5090984;28;20379;-74
2023/07/13 08:31:44;;;;;;;14.77;4.40;;;22.70;61.40;;;;;;5110822;27;20622;-76
2023/07/13 08:34:10;;;;;;;14.02;4.38;;;23.10;60.40;;;;;;5091921;27;21556;-73
2023/07/13 08:36:37;;;;;;;9.18;3.65;;;23.40;60.40;;;;;;5112131;27;20039;-74
2023/07/13 08:39:02;;;;;;;11.23;3.58;;;23.60;59.40;;;;;;5111849;27;20011;-75
2023/07/13 08:41:28;;;;;;;13.00;4.25;;;23.70;59.00;;;;;;5104613;27;20406;-75
2023/07/13 08:43:58;;;;;;;9.43;3.03;;;23.70;58.20;;;;;;5097159;28;20020;-75
2023/07/13 08:46:45;;;;;;;9.45;3.38;;;23.60;56.20;;;;;;5091783;28;20031;-75
2023/07/13 08:49:15;;;;;;;9.63;2.72;;;23.50;57.20;;;;;;5102930;28;20015;-75
2023/07/13 08:51:44;;;;;;;10.45;2.70;;;22.70;59.20;;;;;;5089794;28;20409;-75
2023/07/13 08:54:35;;;;;;;11.45;3.28;;;22.80;59.90;;;;;;5108047;27;20477;-75
2023/07/13 08:57:17;;;;;;;13.00;3.50;;;22.80;58.60;;;;;;5091916;28;20034;-75
2023/07/13 08:59:44;;;;;;;10.95;3.00;;;22.90;59.40;;;;;;5107923;28;20020;-76
2023/07/13 09:02:31;;;;;;;12.05;3.75;;;22.70;59.40;;;;;;5107797;27;20035;-75
2023/07/13 09:05:01;;;;;;;10.88;3.53;;;23.00;59.50;;;;;;5101355;27;20039;-76
2023/07/13 09:07:42;;;;;;;11.32;3.60;;;23.00;59.80;;;;;;5098070;28;20018;-75
2023/07/13 09:10:17;;;;;;;10.98;3.45;;;22.90;59.50;;;;;;5107514;27;20020;-76
2023/07/13 09:12:52;;;;;;;11.38;3.35;;;22.80;59.00;;;;;;5108571;28;20023;-76
2023/07/13 09:15:43;;;;;;;11.57;3.58;;;22.60;60.40;;;;;;5110909;27;20363;-75
2023/07/13 09:18:30;;;;;;;12.82;3.13;;;22.30;61.70;;;;;;5100203;28;20028;-75
2023/07/13 09:21:02;;;;;;;11.60;4.00;;;22.80;59.70;;;;;;5106675;28;20516;-75
2023/07/13 09:23:30;;;;;;;10.20;3.65;;;22.90;60.20;;;;;;5107774;28;20559;-75
2023/07/13 09:26:18;;;;;;;10.40;3.55;;;22.90;59.20;;;;;;5106906;28;20051;-75
2023/07/13 09:28:55;;;;;;;8.43;3.10;;;23.30;57.20;;;;;;5106544;28;20038;-74
2023/07/13 09:31:30;;;;;;;12.10;3.78;;;23.50;56.90;;;;;;5090198;27;20070;-74
2023/07/13 09:33:56;;;;;;;11.25;3.20;;;23.60;56.50;;;;;;5107225;28;20023;-75
2023/07/13 09:36:28;;;;;;;10.75;3.53;;;24.10;55.00;;;;;;5106664;28;20039;-73
2023/07/13 09:39:10;;;;;;;10.98;3.70;;;24.00;55.10;;;;;;5083938;28;20114;-74
2023/07/13 09:42:12;;;;;;;8.77;3.03;;;24.00;55.30;;;;;;5106699;28;20039;-75
2023/07/13 09:44:51;;;;;;;9.95;3.13;;;23.80;56.40;;;;;;5092232;28;20118;-76
2023/07/13 09:47:23;;;;;;;7.55;2.78;;;24.10;55.30;;;;;;5111210;27;20466;-75
2023/07/13 09:49:55;;;;;;;13.65;3.10;;;24.20;54.20;;;;;;5111472;27;20088;-75
2023/07/13 09:52:21;;;;;;;10.15;2.70;;;24.40;53.10;;;;;;5109565;27;20480;-74
2023/07/13 09:54:50;;;;;;;9.57;3.00;;;24.60;53.10;;;;;;5110456;27;20038;-74
2023/07/13 09:57:23;;;;;;;10.00;3.03;;;24.70;52.90;;;;;;5106485;28;20069;-74
2023/07/13 09:59:51;;;;;;;9.17;3.13;;;24.50;52.30;;;;;;5088710;28;20376;-74
2023/07/13 10:02:22;;;;;;;9.77;3.05;;;24.60;51.90;;;;;;5089233;28;20273;-74
2023/07/13 10:05:03;;;;;;;8.23;2.60;;;24.50;52.40;;;;;;5107097;28;20015;-75
2023/07/13 10:07:30;;;;;;;10.23;2.90;;;24.90;52.60;;;;;;5102203;28;20417;-75
2023/07/13 10:09:57;;;;;;;9.63;2.65;;;25.10;51.50;;;;;;5105517;27;20792;-75
2023/07/13 10:12:24;;;;;;;10.70;2.60;;;25.10;51.80;;;;;;5107234;28;20012;-75
2023/07/13 10:14:54;;;;;;;7.43;2.88;;;25.50;51.90;;;;;;5116286;27;20447;-75
2023/07/13 10:17:32;;;;;;;8.30;2.55;;;25.60;50.30;;;;;;5111069;27;20499;-75
2023/07/13 10:20:05;;;;;;;9.50;2.47;;;25.60;49.30;;;;;;5091335;28;20084;-74
2023/07/13 10:22:51;;;;;;;8.05;2.20;;;25.80;49.30;;;;;;5106432;28;20136;-73
2023/07/13 10:25:23;;;;;;;7.47;2.47;;;26.10;47.40;;;;;;5106072;28;20112;-74
2023/07/13 10:28:02;;;;;;;9.35;2.70;;;26.10;47.30;;;;;;5106105;28;20259;-74
2023/07/13 10:30:33;;;;;;;9.63;2.40;;;25.80;48.20;;;;;;5101026;27;20039;-75
2023/07/13 10:33:03;;;;;;;9.82;2.78;;;25.20;48.90;;;;;;5087159;28;20383;-75
2023/07/13 10:35:31;;;;;;;8.80;2.75;;;24.40;51.20;;;;;;5105923;27;20035;-75
2023/07/13 10:38:23;;;;;;;10.23;2.70;;;23.20;57.60;;;;;;5106754;28;20047;-74
2023/07/13 10:41:03;;;;;;;10.52;3.50;;;21.80;64.60;;;;;;5101931;27;20028;-76
2023/07/13 10:43:37;;;;;;;8.43;2.92;;;21.30;70.20;;;;;;5102676;28;20082;-75
2023/07/13 10:46:11;;;;;;;8.13;3.22;;;20.90;72.40;;;;;;5105907;27;20270;-75
2023/07/13 10:48:39;;;;;;;8.30;2.73;;;20.40;72.70;;;;;;5107014;28;20024;-76
2023/07/13 10:51:06;;;;;;;7.93;2.60;;;20.10;75.50;;;;;;5106105;27;20101;-75
2023/07/13 10:53:39;;;;;;;9.45;3.28;;;20.00;74.50;;;;;;5087357;28;20506;-76
2023/07/13 10:56:20;;;;;;;6.05;2.88;;;20.10;75.30;;;;;;5105753;28;20089;-74
2023/07/13 10:58:46;;;;;;;6.82;2.80;;;20.10;76.10;;;;;;5105627;28;20026;-74
2023/07/13 11:01:16;;;;;;;7.03;2.80;;;20.30;74.20;;;;;;5087376;28;20031;-76
2023/07/13 11:03:59;;;;;;;8.65;2.92;;;20.70;75.00;;;;;;5105915;28;20055;-76
2023/07/13 11:06:31;;;;;;;6.90;2.88;;;21.30;74.80;;;;;;5086648;27;20027;-76
2023/07/13 11:09:30;;;;;;;7.93;3.08;;;21.60;73.80;;;;;;5121297;27;20464;-76
2023/07/13 11:11:58;;;;;;;8.32;3.35;;;22.10;70.00;;;;;;5106046;27;20038;-77
2023/07/13 11:14:42;;;;;;;6.57;2.90;;;22.40;72.00;;;;;;5106688;28;20448;-76
2023/07/13 11:17:29;;;;;;;6.18;3.00;;;22.30;71.30;;;;;;5083451;28;20593;-76
2023/07/13 11:20:12;;;;;;;6.57;2.30;;;22.40;69.20;;;;;;5103302;28;20107;-77
2023/07/13 11:22:50;;;;;;;6.28;2.45;;;22.70;69.20;;;;;;5105759;28;20049;-75
2023/07/13 11:25:26;;;;;;;6.40;2.47;;;23.10;65.50;;;;;;5087081;27;20483;-75
2023/07/13 11:28:10;;;;;;;7.60;2.63;;;23.00;65.60;;;;;;5102330;28;20417;-74
2023/07/13 11:30:40;;;;;;;7.80;2.95;;;23.00;66.00;;;;;;5097736;28;20070;-75
2023/07/13 11:33:15;;;;;;;7.88;2.65;;;23.10;66.90;;;;;;5083225;28;20008;-75
2023/07/13 11:36:01;;;;;;;7.57;3.08;;;23.40;64.40;;;;;;5105230;27;20054;-75
2023/07/13 11:38:35;;;;;;;10.57;3.40;;;23.60;64.60;;;;;;5116035;28;20019;-75
2023/07/13 11:41:13;;;;;;;8.25;3.22;;;23.60;63.90;;;;;;5104904;27;20030;-76
2023/07/13 11:43:39;;;;;;;10.55;3.60;;;24.00;63.30;;;;;;5105765;28;20031;-76
2023/07/13 11:46:24;;;;;;;6.03;3.08;;;24.20;62.50;;;;;;5105330;27;20100;-76
2023/07/13 11:48:51;;;;;;;6.68;3.33;;;24.30;62.60;;;;;;5104405;28;20019;-76
2023/07/13 11:51:33;;;;;;;9.68;3.17;;;24.70;60.30;;;;;;5096366;28;20433;-76
2023/07/13 11:54:04;;;;;;;9.85;3.40;;;24.70;60.40;;;;;;5109565;28;20019;-74
2023/07/13 11:56:32;;;;;;;10.63;3.58;;;24.50;60.70;;;;;;5109549;27;20035;-74
2023/07/13 11:59:05;;;;;;;8.13;3.53;;;23.90;61.50;;;;;;5083592;28;20410;-74
2023/07/13 12:01:32;;;;;;;9.50;3.15;;;23.60;64.00;;;;;;5110151;27;20069;-75
2023/07/13 12:04:03;;;;;;;10.02;3.03;;;23.70;62.60;;;;;;5110868;28;20361;-74
2023/07/13 12:06:32;;;;;;;9.05;3.55;;;23.50;62.80;;;;;;5113840;27;20046;-75
2023/07/13 12:09:00;;;;;;;12.60;3.97;;;23.40;63.30;;;;;;5111587;28;20028;-76
2023/07/13 12:11:26;;;;;;;6.68;2.40;;;23.40;61.70;;;;;;5109955;27;20122;-74
2023/07/13 12:13:52;;;;;;;9.02;2.63;;;23.50;61.90;;;;;;5110304;28;20374;-75
2023/07/13 12:16:32;;;;;;;7.13;3.05;;;23.60;61.50;;;;;;5113197;27;20031;-75
2023/07/13 12:19:00;;;;;;;8.10;2.70;;;24.00;60.90;;;;;;5087987;28;20093;-75
2023/07/13 12:21:39;;;;;;;7.75;2.35;;;24.60;60.10;;;;;;5108228;27;20352;-75
2023/07/13 12:24:13;;;;;;;5.53;2.28;;;25.30;57.60;;;;;;5107442;28;20031;-75
2023/07/13 12:26:39;;;;;;;8.43;2.33;;;25.70;57.40;;;;;;5108873;27;20032;-75
2023/07/13 12:29:07;;;;;;;7.10;2.28;;;25.80;53.00;;;;;;5089908;28;20027;-75
2023/07/13 12:31:41;;;;;;;7.85;2.38;;;25.60;50.50;;;;;;5108690;27;20519;-75
2023/07/13 12:34:13;;;;;;;;;;;25.10;49.00;;;;;;5108925;28;20023;-75
2023/07/13 12:36:55;;;;;;;4.88;1.98;;;24.80;51.10;;;;;;5107850;27;19915;-76
2023/07/13 12:39:45;;;;;;;6.30;2.60;;;25.10;50.60;;;;;;5103514;28;20080;-76
2023/07/13 12:42:17;;;;;;;4.65;1.90;;;25.40;50.30;;;;;;5108641;28;20028;-76
2023/07/13 12:44:43;;;;;;;6.63;2.30;;;25.40;49.40;;;;;;5102596;28;20048;-76
2023/07/13 12:47:13;;;;;;;5.25;2.30;;;25.40;49.30;;;;;;5107406;28;20133;-75
2023/07/13 12:49:47;;;;;;;6.53;2.45;;;25.60;50.90;;;;;;5108826;28;20043;-76
2023/07/13 12:52:14;;;;;;;;;;;25.40;49.60;;;;;;5103641;28;20032;-76